sensor_id;sensor_type;location;lat;lon;timestamp;P1;durP1;ratioP1;P2;durP2;ratioP2
64678;SDS011;51094;53.864;27.676;2023-03-01T00:01:06;1.58;;;1.58;;
64678;SDS011;51094;53.864;27.676;2023-03-01T00:03:35;1.48;;;1.48;;
64678;SDS011;51094;53.864;27.676;2023-03-01T00:06:02;1.70;;;1.70;;
64678;SDS011;51094;53.864;27.676;2023-03-01T00:08:30;1.60;;;1.60;;
64678;SDS011;51094;53.864;27.676;2023-03-01T00:11:16;1.50;;;1.50;;
64678;SDS011;51094;53.864;27.676;2023-03-01T00:13:44;1.42;;;1.42;;
64678;SDS011;51094;53.864;27.676;2023-03-01T00:16:16;1.40;;;1.40;;
64678;SDS011;51094;53.864;27.676;2023-03-01T00:18:45;1.27;;;1.27;;
64678;SDS011;51094;53.864;27.676;2023-03-01T00:21:12;1.30;;;1.30;;
64678;SDS011;51094;53.864;27.676;2023-03-01T00:23:39;1.45;;;1.45;;
64678;SDS011;51094;53.864;27.676;2023-03-01T00:26:07;1.40;;;1.40;;
64678;SDS011;51094;53.864;27.676;2023-03-01T00:28:38;1.30;;;1.30;;
64678;SDS011;51094;53.864;27.676;2023-03-01T00:31:07;1.30;;;1.30;;
64678;SDS011;51094;53.864;27.676;2023-03-01T00:33:37;1.27;;;1.27;;
64678;SDS011;51094;53.864;27.676;2023-03-01T00:36:05;1.50;;;1.50;;
64678;SDS011;51094;53.864;27.676;2023-03-01T00:38:36;1.30;;;1.30;;
64678;SDS011;51094;53.864;27.676;2023-03-01T00:41:08;1.35;;;1.35;;
64678;SDS011;51094;53.864;27.676;2023-03-01T00:43:37;1.30;;;1.30;;
64678;SDS011;51094;53.864;27.676;2023-03-01T00:46:07;1.33;;;1.33;;
64678;SDS011;51094;53.864;27.676;2023-03-01T00:48:36;1.30;;;1.30;;
64678;SDS011;51094;53.864;27.676;2023-03-01T00:51:07;1.30;;;1.30;;
64678;SDS011;51094;53.864;27.676;2023-03-01T00:53:54;1.38;;;1.38;;
64678;SDS011;51094;53.864;27.676;2023-03-01T00:58:50;1.30;;;1.30;;
64678;SDS011;51094;53.864;27.676;2023-03-01T01:01:19;1.30;;;1.30;;
64678;SDS011;51094;53.864;27.676;2023-03-01T01:03:49;1.25;;;1.25;;
64678;SDS011;51094;53.864;27.676;2023-03-01T01:06:23;1.30;;;1.30;;
64678;SDS011;51094;53.864;27.676;2023-03-01T01:11:19;1.35;;;1.35;;
64678;SDS011;51094;53.864;27.676;2023-03-01T01:13:47;1.30;;;1.30;;
64678;SDS011;51094;53.864;27.676;2023-03-01T01:16:15;1.40;;;1.40;;
64678;SDS011;51094;53.864;27.676;2023-03-01T01:18:44;1.30;;;1.30;;
64678;SDS011;51094;53.864;27.676;2023-03-01T01:21:13;1.58;;;1.58;;
64678;SDS011;51094;53.864;27.676;2023-03-01T01:23:42;1.30;;;1.30;;
64678;SDS011;51094;53.864;27.676;2023-03-01T01:26:13;1.50;;;1.50;;
64678;SDS011;51094;53.864;27.676;2023-03-01T01:28:42;1.30;;;1.30;;
64678;SDS011;51094;53.864;27.676;2023-03-01T01:31:09;1.27;;;1.27;;
64678;SDS011;51094;53.864;27.676;2023-03-01T01:33:36;1.25;;;1.25;;
64678;SDS011;51094;53.864;27.676;2023-03-01T01:36:04;1.20;;;1.20;;
64678;SDS011;51094;53.864;27.676;2023-03-01T01:38:32;1.20;;;1.20;;
64678;SDS011;51094;53.864;27.676;2023-03-01T01:41:00;1.42;;;1.42;;
64678;SDS011;51094;53.864;27.676;2023-03-01T01:45:55;1.20;;;1.20;;
64678;SDS011;51094;53.864;27.676;2023-03-01T01:48:28;1.20;;;1.20;;
64678;SDS011;51094;53.864;27.676;2023-03-01T01:53:39;1.10;;;1.10;;
64678;SDS011;51094;53.864;27.676;2023-03-01T01:56:09;1.30;;;1.30;;
64678;SDS011;51094;53.864;27.676;2023-03-01T01:58:40;1.10;;;1.10;;
64678;SDS011;51094;53.864;27.676;2023-03-01T02:01:10;1.13;;;1.13;;
64678;SDS011;51094;53.864;27.676;2023-03-01T02:03:38;1.10;;;1.10;;
64678;SDS011;51094;53.864;27.676;2023-03-01T02:06:17;1.10;;;1.10;;
64678;SDS011;51094;53.864;27.676;2023-03-01T02:11:19;1.10;;;1.10;;
64678;SDS011;51094;53.864;27.676;2023-03-01T02:13:47;1.10;;;1.10;;
64678;SDS011;51094;53.864;27.676;2023-03-01T02:16:15;0.93;;;0.93;;
64678;SDS011;51094;53.864;27.676;2023-03-01T02:18:44;1.00;;;1.00;;
64678;SDS011;51094;53.864;27.676;2023-03-01T02:21:20;1.10;;;1.10;;
64678;SDS011;51094;53.864;27.676;2023-03-01T02:23:59;1.00;;;1.00;;
64678;SDS011;51094;53.864;27.676;2023-03-01T02:26:40;1.05;;;1.05;;
64678;SDS011;51094;53.864;27.676;2023-03-01T02:29:11;1.00;;;1.00;;
64678;SDS011;51094;53.864;27.676;2023-03-01T02:31:38;0.90;;;0.90;;
64678;SDS011;51094;53.864;27.676;2023-03-01T02:34:11;1.00;;;1.00;;
64678;SDS011;51094;53.864;27.676;2023-03-01T02:36:51;1.00;;;1.00;;
64678;SDS011;51094;53.864;27.676;2023-03-01T02:39:30;0.88;;;0.88;;
64678;SDS011;51094;53.864;27.676;2023-03-01T02:42:10;0.90;;;0.90;;
64678;SDS011;51094;53.864;27.676;2023-03-01T02:44:39;1.00;;;1.00;;
64678;SDS011;51094;53.864;27.676;2023-03-01T02:47:06;1.30;;;1.30;;
64678;SDS011;51094;53.864;27.676;2023-03-01T02:49:34;1.00;;;1.00;;
64678;SDS011;51094;53.864;27.676;2023-03-01T02:57:26;0.90;;;0.90;;
64678;SDS011;51094;53.864;27.676;2023-03-01T02:59:55;1.20;;;1.20;;
64678;SDS011;51094;53.864;27.676;2023-03-01T03:02:28;0.90;;;0.90;;
64678;SDS011;51094;53.864;27.676;2023-03-01T03:05:12;1.02;;;1.02;;
64678;SDS011;51094;53.864;27.676;2023-03-01T03:07:42;1.10;;;1.10;;
64678;SDS011;51094;53.864;27.676;2023-03-01T03:10:12;1.20;;;1.20;;
64678;SDS011;51094;53.864;27.676;2023-03-01T03:12:42;1.80;;;1.70;;
64678;SDS011;51094;53.864;27.676;2023-03-01T03:15:09;1.50;;;1.50;;
64678;SDS011;51094;53.864;27.676;2023-03-01T03:17:39;1.35;;;1.35;;
64678;SDS011;51094;53.864;27.676;2023-03-01T03:20:11;1.70;;;1.70;;
64678;SDS011;51094;53.864;27.676;2023-03-01T03:22:46;1.40;;;1.40;;
64678;SDS011;51094;53.864;27.676;2023-03-01T03:25:14;1.15;;;1.15;;
64678;SDS011;51094;53.864;27.676;2023-03-01T03:27:42;1.48;;;1.48;;
64678;SDS011;51094;53.864;27.676;2023-03-01T03:30:11;1.23;;;1.23;;
64678;SDS011;51094;53.864;27.676;2023-03-01T03:32:42;1.25;;;1.25;;
64678;SDS011;51094;53.864;27.676;2023-03-01T03:35:20;1.10;;;1.10;;
64678;SDS011;51094;53.864;27.676;2023-03-01T03:37:52;1.48;;;1.48;;
64678;SDS011;51094;53.864;27.676;2023-03-01T03:40:29;1.35;;;1.35;;
64678;SDS011;51094;53.864;27.676;2023-03-01T03:42:58;2.70;;;2.70;;
64678;SDS011;51094;53.864;27.676;2023-03-01T03:45:25;3.10;;;3.00;;
64678;SDS011;51094;53.864;27.676;2023-03-01T03:47:52;3.40;;;3.40;;
64678;SDS011;51094;53.864;27.676;2023-03-01T03:50:19;2.60;;;2.60;;
64678;SDS011;51094;53.864;27.676;2023-03-01T03:52:46;3.20;;;3.20;;
64678;SDS011;51094;53.864;27.676;2023-03-01T03:55:13;4.10;;;4.00;;
64678;SDS011;51094;53.864;27.676;2023-03-01T03:57:41;3.10;;;3.05;;
64678;SDS011;51094;53.864;27.676;2023-03-01T04:00:09;2.78;;;2.78;;
64678;SDS011;51094;53.864;27.676;2023-03-01T04:02:41;3.67;;;3.58;;
64678;SDS011;51094;53.864;27.676;2023-03-01T04:05:10;4.35;;;4.25;;
64678;SDS011;51094;53.864;27.676;2023-03-01T04:07:38;3.20;;;3.20;;
64678;SDS011;51094;53.864;27.676;2023-03-01T04:10:06;3.50;;;3.40;;
64678;SDS011;51094;53.864;27.676;2023-03-01T04:12:35;2.45;;;2.45;;
64678;SDS011;51094;53.864;27.676;2023-03-01T04:15:03;3.08;;;3.08;;
64678;SDS011;51094;53.864;27.676;2023-03-01T04:17:45;3.50;;;3.40;;
64678;SDS011;51094;53.864;27.676;2023-03-01T04:20:14;3.50;;;3.40;;
64678;SDS011;51094;53.864;27.676;2023-03-01T04:22:44;2.85;;;2.75;;
64678;SDS011;51094;53.864;27.676;2023-03-01T04:25:13;2.40;;;2.30;;
64678;SDS011;51094;53.864;27.676;2023-03-01T04:27:40;2.40;;;2.40;;
64678;SDS011;51094;53.864;27.676;2023-03-01T04:30:08;1.80;;;1.80;;
64678;SDS011;51094;53.864;27.676;2023-03-01T04:32:36;2.70;;;2.60;;
64678;SDS011;51094;53.864;27.676;2023-03-01T04:35:03;2.63;;;2.53;;
64678;SDS011;51094;53.864;27.676;2023-03-01T04:37:30;3.20;;;3.10;;
64678;SDS011;51094;53.864;27.676;2023-03-01T04:39:57;2.70;;;2.70;;
64678;SDS011;51094;53.864;27.676;2023-03-01T04:42:24;3.10;;;3.10;;
64678;SDS011;51094;53.864;27.676;2023-03-01T04:44:51;3.38;;;3.28;;
64678;SDS011;51094;53.864;27.676;2023-03-01T04:47:18;3.25;;;3.15;;
64678;SDS011;51094;53.864;27.676;2023-03-01T04:49:44;2.22;;;2.22;;
64678;SDS011;51094;53.864;27.676;2023-03-01T04:52:11;1.80;;;1.80;;
64678;SDS011;51094;53.864;27.676;2023-03-01T04:54:38;1.50;;;1.50;;
64678;SDS011;51094;53.864;27.676;2023-03-01T04:57:05;1.02;;;1.02;;
64678;SDS011;51094;53.864;27.676;2023-03-01T04:59:32;1.50;;;1.50;;
64678;SDS011;51094;53.864;27.676;2023-03-01T05:01:59;1.20;;;1.20;;
64678;SDS011;51094;53.864;27.676;2023-03-01T05:04:26;1.40;;;1.40;;
64678;SDS011;51094;53.864;27.676;2023-03-01T05:06:53;1.27;;;1.27;;
64678;SDS011;51094;53.864;27.676;2023-03-01T05:09:20;1.38;;;1.27;;
64678;SDS011;51094;53.864;27.676;2023-03-01T05:11:47;1.10;;;1.10;;
64678;SDS011;51094;53.864;27.676;2023-03-01T05:14:14;0.98;;;0.98;;
64678;SDS011;51094;53.864;27.676;2023-03-01T05:16:40;0.93;;;0.93;;
64678;SDS011;51094;53.864;27.676;2023-03-01T05:19:07;1.20;;;1.20;;
64678;SDS011;51094;53.864;27.676;2023-03-01T05:21:42;0.80;;;0.80;;
64678;SDS011;51094;53.864;27.676;2023-03-01T05:24:28;0.93;;;0.93;;
64678;SDS011;51094;53.864;27.676;2023-03-01T05:27:00;0.80;;;0.80;;
64678;SDS011;51094;53.864;27.676;2023-03-01T05:29:28;0.90;;;0.90;;
64678;SDS011;51094;53.864;27.676;2023-03-01T05:31:57;1.10;;;1.10;;
64678;SDS011;51094;53.864;27.676;2023-03-01T05:34:26;0.85;;;0.85;;
64678;SDS011;51094;53.864;27.676;2023-03-01T05:36:54;0.80;;;0.80;;
64678;SDS011;51094;53.864;27.676;2023-03-01T05:39:22;1.02;;;1.02;;
64678;SDS011;51094;53.864;27.676;2023-03-01T05:41:54;0.98;;;0.98;;
64678;SDS011;51094;53.864;27.676;2023-03-01T05:44:22;0.90;;;0.90;;
64678;SDS011;51094;53.864;27.676;2023-03-01T05:46:50;0.95;;;0.95;;
64678;SDS011;51094;53.864;27.676;2023-03-01T05:49:17;0.55;;;0.55;;
64678;SDS011;51094;53.864;27.676;2023-03-01T05:51:48;1.20;;;1.20;;
64678;SDS011;51094;53.864;27.676;2023-03-01T05:54:16;0.90;;;0.90;;
64678;SDS011;51094;53.864;27.676;2023-03-01T05:56:44;0.90;;;0.90;;
64678;SDS011;51094;53.864;27.676;2023-03-01T05:59:11;0.50;;;0.50;;
64678;SDS011;51094;53.864;27.676;2023-03-01T06:01:38;0.50;;;0.50;;
64678;SDS011;51094;53.864;27.676;2023-03-01T06:04:05;0.50;;;0.50;;
64678;SDS011;51094;53.864;27.676;2023-03-01T06:06:35;0.60;;;0.60;;
64678;SDS011;51094;53.864;27.676;2023-03-01T06:09:06;0.60;;;0.60;;
64678;SDS011;51094;53.864;27.676;2023-03-01T06:11:35;0.80;;;0.80;;
64678;SDS011;51094;53.864;27.676;2023-03-01T06:14:03;0.60;;;0.60;;
64678;SDS011;51094;53.864;27.676;2023-03-01T06:16:30;0.60;;;0.60;;
64678;SDS011;51094;53.864;27.676;2023-03-01T06:18:58;0.75;;;0.75;;
64678;SDS011;51094;53.864;27.676;2023-03-01T06:21:24;1.05;;;1.05;;
64678;SDS011;51094;53.864;27.676;2023-03-01T06:23:51;0.70;;;0.70;;
64678;SDS011;51094;53.864;27.676;2023-03-01T06:26:18;0.88;;;0.88;;
64678;SDS011;51094;53.864;27.676;2023-03-01T06:28:45;0.70;;;0.70;;
64678;SDS011;51094;53.864;27.676;2023-03-01T06:31:12;1.17;;;1.17;;
64678;SDS011;51094;53.864;27.676;2023-03-01T06:33:39;0.70;;;0.70;;
64678;SDS011;51094;53.864;27.676;2023-03-01T06:36:06;0.50;;;0.50;;
64678;SDS011;51094;53.864;27.676;2023-03-01T06:38:34;0.57;;;0.57;;
64678;SDS011;51094;53.864;27.676;2023-03-01T06:41:00;0.50;;;0.50;;
64678;SDS011;51094;53.864;27.676;2023-03-01T06:43:28;0.60;;;0.60;;
64678;SDS011;51094;53.864;27.676;2023-03-01T06:45:55;0.88;;;0.88;;
64678;SDS011;51094;53.864;27.676;2023-03-01T06:48:22;0.60;;;0.60;;
64678;SDS011;51094;53.864;27.676;2023-03-01T06:50:49;0.70;;;0.70;;
64678;SDS011;51094;53.864;27.676;2023-03-01T06:53:16;0.57;;;0.57;;
64678;SDS011;51094;53.864;27.676;2023-03-01T06:55:43;0.70;;;0.70;;
64678;SDS011;51094;53.864;27.676;2023-03-01T06:58:10;0.60;;;0.60;;
64678;SDS011;51094;53.864;27.676;2023-03-01T07:00:37;0.55;;;0.50;;
64678;SDS011;51094;53.864;27.676;2023-03-01T07:03:06;0.57;;;0.57;;
64678;SDS011;51094;53.864;27.676;2023-03-01T07:05:33;0.55;;;0.55;;
64678;SDS011;51094;53.864;27.676;2023-03-01T07:08:00;0.60;;;0.60;;
64678;SDS011;51094;53.864;27.676;2023-03-01T07:10:27;0.60;;;0.60;;
64678;SDS011;51094;53.864;27.676;2023-03-01T07:12:55;0.52;;;0.52;;
64678;SDS011;51094;53.864;27.676;2023-03-01T07:15:23;0.57;;;0.57;;
64678;SDS011;51094;53.864;27.676;2023-03-01T07:17:51;0.60;;;0.60;;
64678;SDS011;51094;53.864;27.676;2023-03-01T07:20:18;0.75;;;0.75;;
64678;SDS011;51094;53.864;27.676;2023-03-01T07:22:48;0.90;;;0.90;;
64678;SDS011;51094;53.864;27.676;2023-03-01T07:25:15;0.60;;;0.60;;
64678;SDS011;51094;53.864;27.676;2023-03-01T07:27:42;0.50;;;0.50;;
64678;SDS011;51094;53.864;27.676;2023-03-01T07:30:09;0.60;;;0.60;;
64678;SDS011;51094;53.864;27.676;2023-03-01T07:32:36;0.50;;;0.50;;
64678;SDS011;51094;53.864;27.676;2023-03-01T07:35:03;0.63;;;0.63;;
64678;SDS011;51094;53.864;27.676;2023-03-01T07:37:30;0.50;;;0.50;;
64678;SDS011;51094;53.864;27.676;2023-03-01T07:39:56;0.60;;;0.60;;
64678;SDS011;51094;53.864;27.676;2023-03-01T07:42:23;0.57;;;0.57;;
64678;SDS011;51094;53.864;27.676;2023-03-01T07:44:50;0.60;;;0.60;;
64678;SDS011;51094;53.864;27.676;2023-03-01T07:47:18;0.68;;;0.68;;
64678;SDS011;51094;53.864;27.676;2023-03-01T07:49:44;0.60;;;0.60;;
64678;SDS011;51094;53.864;27.676;2023-03-01T07:52:11;0.50;;;0.50;;
64678;SDS011;51094;53.864;27.676;2023-03-01T07:54:38;0.60;;;0.60;;
64678;SDS011;51094;53.864;27.676;2023-03-01T07:57:05;0.40;;;0.40;;
64678;SDS011;51094;53.864;27.676;2023-03-01T07:59:32;0.52;;;0.52;;
64678;SDS011;51094;53.864;27.676;2023-03-01T08:01:59;0.50;;;0.50;;
64678;SDS011;51094;53.864;27.676;2023-03-01T08:04:26;0.50;;;0.50;;
64678;SDS011;51094;53.864;27.676;2023-03-01T08:06:54;0.40;;;0.40;;
64678;SDS011;51094;53.864;27.676;2023-03-01T08:09:21;0.55;;;0.55;;
64678;SDS011;51094;53.864;27.676;2023-03-01T08:11:48;0.50;;;0.50;;
64678;SDS011;51094;53.864;27.676;2023-03-01T08:14:15;0.50;;;0.50;;
64678;SDS011;51094;53.864;27.676;2023-03-01T08:16:42;0.50;;;0.50;;
64678;SDS011;51094;53.864;27.676;2023-03-01T08:19:10;1.00;;;1.00;;
64678;SDS011;51094;53.864;27.676;2023-03-01T08:21:38;0.52;;;0.52;;
64678;SDS011;51094;53.864;27.676;2023-03-01T08:24:05;0.40;;;0.40;;
64678;SDS011;51094;53.864;27.676;2023-03-01T08:26:33;0.43;;;0.43;;
64678;SDS011;51094;53.864;27.676;2023-03-01T08:29:00;0.30;;;0.30;;
64678;SDS011;51094;53.864;27.676;2023-03-01T08:31:38;0.60;;;0.60;;
64678;SDS011;51094;53.864;27.676;2023-03-01T08:34:10;0.32;;;0.32;;
64678;SDS011;51094;53.864;27.676;2023-03-01T08:36:39;0.50;;;0.50;;
64678;SDS011;51094;53.864;27.676;2023-03-01T08:39:10;0.40;;;0.40;;
64678;SDS011;51094;53.864;27.676;2023-03-01T08:41:39;0.60;;;0.60;;
64678;SDS011;51094;53.864;27.676;2023-03-01T08:44:06;0.30;;;0.30;;
64678;SDS011;51094;53.864;27.676;2023-03-01T08:46:36;0.50;;;0.50;;
64678;SDS011;51094;53.864;27.676;2023-03-01T08:49:05;0.50;;;0.50;;
64678;SDS011;51094;53.864;27.676;2023-03-01T08:51:33;0.50;;;0.50;;
64678;SDS011;51094;53.864;27.676;2023-03-01T08:54:03;0.50;;;0.50;;
64678;SDS011;51094;53.864;27.676;2023-03-01T08:56:31;0.43;;;0.43;;
64678;SDS011;51094;53.864;27.676;2023-03-01T08:58:58;0.60;;;0.60;;
64678;SDS011;51094;53.864;27.676;2023-03-01T09:01:26;0.40;;;0.40;;
64678;SDS011;51094;53.864;27.676;2023-03-01T09:03:53;0.40;;;0.40;;
64678;SDS011;51094;53.864;27.676;2023-03-01T09:06:20;0.40;;;0.40;;
64678;SDS011;51094;53.864;27.676;2023-03-01T09:08:47;0.50;;;0.50;;
64678;SDS011;51094;53.864;27.676;2023-03-01T09:11:17;0.40;;;0.40;;
64678;SDS011;51094;53.864;27.676;2023-03-01T09:13:47;0.40;;;0.40;;
64678;SDS011;51094;53.864;27.676;2023-03-01T09:16:15;0.40;;;0.40;;
64678;SDS011;51094;53.864;27.676;2023-03-01T09:18:44;0.50;;;0.50;;
64678;SDS011;51094;53.864;27.676;2023-03-01T09:21:16;0.55;;;0.55;;
64678;SDS011;51094;53.864;27.676;2023-03-01T09:23:56;0.70;;;0.70;;
64678;SDS011;51094;53.864;27.676;2023-03-01T09:26:24;0.60;;;0.60;;
64678;SDS011;51094;53.864;27.676;2023-03-01T09:28:53;0.70;;;0.70;;
64678;SDS011;51094;53.864;27.676;2023-03-01T09:31:22;0.57;;;0.57;;
64678;SDS011;51094;53.864;27.676;2023-03-01T09:33:51;0.60;;;0.60;;
64678;SDS011;51094;53.864;27.676;2023-03-01T09:36:20;0.60;;;0.60;;
64678;SDS011;51094;53.864;27.676;2023-03-01T09:38:48;0.70;;;0.70;;
64678;SDS011;51094;53.864;27.676;2023-03-01T09:44:59;0.63;;;0.63;;
64678;SDS011;51094;53.864;27.676;2023-03-01T09:47:09;0.47;;;0.47;;
64678;SDS011;51094;53.864;27.676;2023-03-01T09:49:41;0.50;;;0.50;;
64678;SDS011;51094;53.864;27.676;2023-03-01T09:55:12;0.50;;;0.50;;
64678;SDS011;51094;53.864;27.676;2023-03-01T09:57:55;0.63;;;0.63;;
64678;SDS011;51094;53.864;27.676;2023-03-01T10:00:42;0.50;;;0.50;;
64678;SDS011;51094;53.864;27.676;2023-03-01T10:06:21;0.40;;;0.40;;
64678;SDS011;51094;53.864;27.676;2023-03-01T10:09:02;0.60;;;0.60;;
64678;SDS011;51094;53.864;27.676;2023-03-01T10:11:37;0.88;;;0.88;;
64678;SDS011;51094;53.864;27.676;2023-03-01T10:14:16;0.90;;;0.90;;
64678;SDS011;51094;53.864;27.676;2023-03-01T10:21:56;0.90;;;0.90;;
64678;SDS011;51094;53.864;27.676;2023-03-01T10:24:27;1.10;;;1.10;;
64678;SDS011;51094;53.864;27.676;2023-03-01T10:27:08;1.40;;;1.40;;
64678;SDS011;51094;53.864;27.676;2023-03-01T10:30:22;1.20;;;1.20;;
64678;SDS011;51094;53.864;27.676;2023-03-01T10:32:53;0.85;;;0.85;;
64678;SDS011;51094;53.864;27.676;2023-03-01T10:35:22;0.88;;;0.88;;
64678;SDS011;51094;53.864;27.676;2023-03-01T10:37:57;0.70;;;0.70;;
64678;SDS011;51094;53.864;27.676;2023-03-01T10:40:24;0.93;;;0.90;;
64678;SDS011;51094;53.864;27.676;2023-03-01T10:42:51;0.63;;;0.63;;
64678;SDS011;51094;53.864;27.676;2023-03-01T10:48:17;0.60;;;0.60;;
64678;SDS011;51094;53.864;27.676;2023-03-01T10:50:46;0.90;;;0.90;;
64678;SDS011;51094;53.864;27.676;2023-03-01T10:53:22;0.90;;;0.90;;
64678;SDS011;51094;53.864;27.676;2023-03-01T10:56:03;0.90;;;0.90;;
64678;SDS011;51094;53.864;27.676;2023-03-01T10:58:31;0.80;;;0.80;;
64678;SDS011;51094;53.864;27.676;2023-03-01T11:03:41;0.60;;;0.60;;
64678;SDS011;51094;53.864;27.676;2023-03-01T11:08:42;0.98;;;0.98;;
64678;SDS011;51094;53.864;27.676;2023-03-01T11:13:49;1.25;;;1.25;;
64678;SDS011;51094;53.864;27.676;2023-03-01T11:16:32;1.48;;;1.48;;
64678;SDS011;51094;53.864;27.676;2023-03-01T11:19:06;1.00;;;1.00;;
64678;SDS011;51094;53.864;27.676;2023-03-01T11:24:12;0.98;;;0.98;;
64678;SDS011;51094;53.864;27.676;2023-03-01T11:26:43;1.10;;;1.10;;
64678;SDS011;51094;53.864;27.676;2023-03-01T11:29:26;0.90;;;0.90;;
64678;SDS011;51094;53.864;27.676;2023-03-01T11:32:06;1.08;;;1.08;;
64678;SDS011;51094;53.864;27.676;2023-03-01T11:34:48;1.35;;;1.35;;
64678;SDS011;51094;53.864;27.676;2023-03-01T11:40:35;0.88;;;0.88;;
64678;SDS011;51094;53.864;27.676;2023-03-01T11:51:20;0.60;;;0.60;;
64678;SDS011;51094;53.864;27.676;2023-03-01T12:10:48;0.90;;;0.90;;
64678;SDS011;51094;53.864;27.676;2023-03-01T12:22:34;0.70;;;0.70;;
64678;SDS011;51094;53.864;27.676;2023-03-01T12:27:57;1.00;;;1.00;;
64678;SDS011;51094;53.864;27.676;2023-03-01T12:42:10;0.98;;;0.98;;
64678;SDS011;51094;53.864;27.676;2023-03-01T12:49:57;0.80;;;0.80;;
64678;SDS011;51094;53.864;27.676;2023-03-01T12:55:02;0.50;;;0.50;;
64678;SDS011;51094;53.864;27.676;2023-03-01T12:57:39;0.75;;;0.75;;
64678;SDS011;51094;53.864;27.676;2023-03-01T13:02:52;0.70;;;0.70;;
64678;SDS011;51094;53.864;27.676;2023-03-01T13:05:34;0.90;;;0.90;;
64678;SDS011;51094;53.864;27.676;2023-03-01T13:10:48;0.77;;;0.77;;
64678;SDS011;51094;53.864;27.676;2023-03-01T13:13:23;0.70;;;0.70;;
64678;SDS011;51094;53.864;27.676;2023-03-01T13:15:53;0.50;;;0.50;;
64678;SDS011;51094;53.864;27.676;2023-03-01T13:20:54;0.70;;;0.70;;
64678;SDS011;51094;53.864;27.676;2023-03-01T13:23:25;0.68;;;0.68;;
64678;SDS011;51094;53.864;27.676;2023-03-01T13:26:14;0.98;;;0.98;;
64678;SDS011;51094;53.864;27.676;2023-03-01T13:33:53;0.80;;;0.80;;
64678;SDS011;51094;53.864;27.676;2023-03-01T13:36:47;0.70;;;0.70;;
64678;SDS011;51094;53.864;27.676;2023-03-01T13:39:27;0.80;;;0.80;;
64678;SDS011;51094;53.864;27.676;2023-03-01T13:41:59;0.60;;;0.60;;
64678;SDS011;51094;53.864;27.676;2023-03-01T13:44:29;0.70;;;0.70;;
64678;SDS011;51094;53.864;27.676;2023-03-01T13:52:38;0.60;;;0.60;;
64678;SDS011;51094;53.864;27.676;2023-03-01T13:55:25;0.60;;;0.60;;
64678;SDS011;51094;53.864;27.676;2023-03-01T13:57:59;0.70;;;0.70;;
64678;SDS011;51094;53.864;27.676;2023-03-01T14:03:09;0.60;;;0.60;;
64678;SDS011;51094;53.864;27.676;2023-03-01T14:05:39;0.60;;;0.60;;
64678;SDS011;51094;53.864;27.676;2023-03-01T14:08:18;0.70;;;0.70;;
64678;SDS011;51094;53.864;27.676;2023-03-01T14:10:54;0.70;;;0.70;;
64678;SDS011;51094;53.864;27.676;2023-03-01T14:13:58;0.93;;;0.93;;
64678;SDS011;51094;53.864;27.676;2023-03-01T14:19:09;0.90;;;0.90;;
64678;SDS011;51094;53.864;27.676;2023-03-01T14:24:50;0.77;;;0.77;;
64678;SDS011;51094;53.864;27.676;2023-03-01T14:27:20;0.80;;;0.80;;
64678;SDS011;51094;53.864;27.676;2023-03-01T14:30:00;0.85;;;0.85;;
64678;SDS011;51094;53.864;27.676;2023-03-01T14:32:31;0.80;;;0.80;;
64678;SDS011;51094;53.864;27.676;2023-03-01T14:35:00;0.90;;;0.90;;
64678;SDS011;51094;53.864;27.676;2023-03-01T14:37:28;0.82;;;0.82;;
64678;SDS011;51094;53.864;27.676;2023-03-01T14:39:58;0.82;;;0.82;;
64678;SDS011;51094;53.864;27.676;2023-03-01T14:42:30;1.10;;;1.10;;
64678;SDS011;51094;53.864;27.676;2023-03-01T14:45:01;1.00;;;1.00;;
64678;SDS011;51094;53.864;27.676;2023-03-01T14:47:31;1.00;;;1.00;;
64678;SDS011;51094;53.864;27.676;2023-03-01T14:50:01;0.90;;;0.90;;
64678;SDS011;51094;53.864;27.676;2023-03-01T14:52:37;1.10;;;1.10;;
64678;SDS011;51094;53.864;27.676;2023-03-01T14:55:41;1.00;;;1.00;;
64678;SDS011;51094;53.864;27.676;2023-03-01T14:58:03;1.33;;;1.33;;
64678;SDS011;51094;53.864;27.676;2023-03-01T15:00:32;1.58;;;1.58;;
64678;SDS011;51094;53.864;27.676;2023-03-01T15:03:08;1.00;;;1.00;;
64678;SDS011;51094;53.864;27.676;2023-03-01T15:05:40;0.90;;;0.90;;
64678;SDS011;51094;53.864;27.676;2023-03-01T15:08:16;0.63;;;0.63;;
64678;SDS011;51094;53.864;27.676;2023-03-01T15:13:51;0.63;;;0.63;;
64678;SDS011;51094;53.864;27.676;2023-03-01T15:16:29;1.00;;;1.00;;
64678;SDS011;51094;53.864;27.676;2023-03-01T15:19:05;0.70;;;0.70;;
64678;SDS011;51094;53.864;27.676;2023-03-01T15:21:34;0.88;;;0.88;;
64678;SDS011;51094;53.864;27.676;2023-03-01T15:26:52;0.68;;;0.68;;
64678;SDS011;51094;53.864;27.676;2023-03-01T15:29:25;0.68;;;0.68;;
64678;SDS011;51094;53.864;27.676;2023-03-01T15:32:01;1.10;;;1.10;;
64678;SDS011;51094;53.864;27.676;2023-03-01T15:34:31;1.00;;;1.00;;
64678;SDS011;51094;53.864;27.676;2023-03-01T15:36:59;0.73;;;0.73;;
64678;SDS011;51094;53.864;27.676;2023-03-01T15:42:51;0.80;;;0.80;;
64678;SDS011;51094;53.864;27.676;2023-03-01T15:45:08;0.80;;;0.80;;
64678;SDS011;51094;53.864;27.676;2023-03-01T15:47:47;1.15;;;0.90;;
64678;SDS011;51094;53.864;27.676;2023-03-01T15:50:25;0.80;;;0.80;;
64678;SDS011;51094;53.864;27.676;2023-03-01T15:52:54;0.75;;;0.75;;
64678;SDS011;51094;53.864;27.676;2023-03-01T15:55:23;0.82;;;0.82;;
64678;SDS011;51094;53.864;27.676;2023-03-01T15:58:00;0.90;;;0.90;;
64678;SDS011;51094;53.864;27.676;2023-03-01T16:00:33;0.75;;;0.75;;
64678;SDS011;51094;53.864;27.676;2023-03-01T16:03:00;0.80;;;0.80;;
64678;SDS011;51094;53.864;27.676;2023-03-01T16:05:29;0.93;;;0.93;;
64678;SDS011;51094;53.864;27.676;2023-03-01T16:07:58;0.93;;;0.93;;
64678;SDS011;51094;53.864;27.676;2023-03-01T16:10:25;0.90;;;0.90;;
64678;SDS011;51094;53.864;27.676;2023-03-01T16:12:52;0.93;;;0.90;;
64678;SDS011;51094;53.864;27.676;2023-03-01T16:15:24;0.70;;;0.70;;
64678;SDS011;51094;53.864;27.676;2023-03-01T16:17:56;0.80;;;0.80;;
64678;SDS011;51094;53.864;27.676;2023-03-01T16:20:24;1.05;;;1.00;;
64678;SDS011;51094;53.864;27.676;2023-03-01T16:22:58;0.68;;;0.68;;
64678;SDS011;51094;53.864;27.676;2023-03-01T16:25:27;0.88;;;0.88;;
64678;SDS011;51094;53.864;27.676;2023-03-01T16:27:54;0.80;;;0.80;;
64678;SDS011;51094;53.864;27.676;2023-03-01T16:30:22;0.80;;;0.80;;
64678;SDS011;51094;53.864;27.676;2023-03-01T16:32:50;0.80;;;0.80;;
64678;SDS011;51094;53.864;27.676;2023-03-01T16:35:18;0.70;;;0.70;;
64678;SDS011;51094;53.864;27.676;2023-03-01T16:37:47;0.80;;;0.80;;
64678;SDS011;51094;53.864;27.676;2023-03-01T16:42:59;1.00;;;0.82;;
64678;SDS011;51094;53.864;27.676;2023-03-01T16:45:28;0.80;;;0.80;;
64678;SDS011;51094;53.864;27.676;2023-03-01T16:48:01;0.57;;;0.57;;
64678;SDS011;51094;53.864;27.676;2023-03-01T16:50:29;0.60;;;0.60;;
64678;SDS011;51094;53.864;27.676;2023-03-01T16:52:56;0.80;;;0.80;;
64678;SDS011;51094;53.864;27.676;2023-03-01T16:55:23;0.80;;;0.80;;
64678;SDS011;51094;53.864;27.676;2023-03-01T16:57:50;0.70;;;0.70;;
64678;SDS011;51094;53.864;27.676;2023-03-01T17:00:17;0.90;;;0.90;;
64678;SDS011;51094;53.864;27.676;2023-03-01T17:02:44;1.00;;;1.00;;
64678;SDS011;51094;53.864;27.676;2023-03-01T17:05:12;1.70;;;1.70;;
64678;SDS011;51094;53.864;27.676;2023-03-01T17:07:39;1.05;;;1.05;;
64678;SDS011;51094;53.864;27.676;2023-03-01T17:10:07;0.98;;;0.98;;
64678;SDS011;51094;53.864;27.676;2023-03-01T17:12:36;0.90;;;0.90;;
64678;SDS011;51094;53.864;27.676;2023-03-01T17:15:04;1.10;;;1.10;;
64678;SDS011;51094;53.864;27.676;2023-03-01T17:17:32;0.80;;;0.80;;